createdAt,value
2019-03-04T00:01:17.873Z,13.20
2019-03-04T00:03:47.209Z,13.20
2019-03-04T00:06:16.378Z,13.20
2019-03-04T00:08:45.566Z,13.20
2019-03-04T00:11:14.828Z,13.20
2019-03-04T00:13:44.141Z,13.30
2019-03-04T00:16:13.507Z,13.20
2019-03-04T00:18:42.833Z,13.20
2019-03-04T00:21:12.005Z,13.10
2019-03-04T00:23:41.205Z,13.20
2019-03-04T00:26:10.533Z,13.20
2019-03-04T00:28:39.880Z,13.30
2019-03-04T00:31:09.167Z,13.30
2019-03-04T00:33:38.332Z,13.20
2019-03-04T00:36:07.639Z,13.30
2019-03-04T00:38:36.966Z,13.20
2019-03-04T00:41:06.144Z,13.20
2019-03-04T00:43:35.373Z,13.20
2019-03-04T00:46:04.643Z,13.20
2019-03-04T00:48:33.891Z,13.10
2019-03-04T00:51:03.233Z,13.10
2019-03-04T00:53:32.507Z,13.10
2019-03-04T00:56:01.823Z,13.10
2019-03-04T00:58:31.140Z,13.10
2019-03-04T01:01:00.410Z,13.20
2019-03-04T01:03:29.666Z,13.10
2019-03-04T01:05:58.905Z,13.10
2019-03-04T01:08:28.114Z,13.00
2019-03-04T01:10:57.435Z,13.00
2019-03-04T01:13:26.847Z,12.90
2019-03-04T01:15:56.104Z,13.00
2019-03-04T01:18:25.278Z,12.90
2019-03-04T01:20:54.609Z,12.80
2019-03-04T01:23:23.967Z,12.80
2019-03-04T01:25:53.205Z,12.80
2019-03-04T01:28:22.444Z,12.80
2019-03-04T01:30:51.669Z,12.70
2019-03-04T01:33:20.905Z,12.80
2019-03-04T01:35:50.156Z,12.80
2019-03-04T01:38:19.433Z,12.80
2019-03-04T01:40:48.771Z,12.80
2019-03-04T01:43:18.038Z,12.80
2019-03-04T01:45:47.249Z,12.80
2019-03-04T01:48:16.498Z,12.80
2019-03-04T01:50:45.670Z,12.80
2019-03-04T01:53:14.870Z,12.80
2019-03-04T01:55:44.117Z,12.90
2019-03-04T01:58:13.285Z,12.80
2019-03-04T02:00:42.648Z,12.90
2019-03-04T02:03:11.885Z,12.90
2019-03-04T02:05:41.205Z,12.80
2019-03-04T02:08:10.416Z,12.80
2019-03-04T02:10:39.654Z,12.80
2019-03-04T02:13:08.883Z,12.80
2019-03-04T02:15:38.221Z,12.80
2019-03-04T02:18:07.684Z,12.70
2019-03-04T02:20:36.931Z,12.90
2019-03-04T02:23:06.259Z,12.90
2019-03-04T02:26:14.470Z,13.00
2019-03-04T02:28:43.715Z,13.10
2019-03-04T02:31:12.959Z,13.10
2019-03-04T02:33:42.117Z,13.10
2019-03-04T02:36:11.308Z,13.40
2019-03-04T02:38:40.627Z,13.50
2019-03-04T02:41:09.857Z,13.60
2019-03-04T02:43:39.158Z,13.80
2019-03-04T02:46:08.482Z,13.80
2019-03-04T02:48:37.702Z,13.80
2019-03-04T02:51:06.966Z,13.80
2019-03-04T02:53:36.203Z,13.70
2019-03-04T02:56:05.440Z,13.70
2019-03-04T02:58:34.691Z,13.60
2019-03-04T03:01:03.995Z,13.60
2019-03-04T03:03:33.308Z,13.50
2019-03-04T03:06:02.584Z,13.40
2019-03-04T03:08:31.805Z,13.30
2019-03-04T03:11:01.116Z,13.30
2019-03-04T03:13:30.384Z,13.30
2019-03-04T03:15:59.604Z,13.20
2019-03-04T03:18:28.763Z,13.10
2019-03-04T03:20:58.039Z,13.00
2019-03-04T03:23:27.282Z,13.10
2019-03-04T03:25:56.532Z,13.00
2019-03-04T03:28:25.792Z,13.00
2019-03-04T03:30:54.972Z,12.90
2019-03-04T03:33:24.304Z,12.90
2019-03-04T03:35:53.589Z,12.90
2019-03-04T03:38:22.896Z,12.80
2019-03-04T03:40:52.208Z,12.80
2019-03-04T03:43:21.590Z,12.80
2019-03-04T03:45:50.747Z,12.80
2019-03-04T03:48:20.063Z,12.80
2019-03-04T03:50:49.345Z,12.90
2019-03-04T03:53:18.596Z,12.90
2019-03-04T03:55:47.905Z,12.90
2019-03-04T03:58:17.213Z,12.90
2019-03-04T04:00:46.439Z,12.90
2019-03-04T04:03:16.096Z,13.00
2019-03-04T04:05:45.499Z,12.90
2019-03-04T04:08:14.676Z,12.90
2019-03-04T04:10:43.913Z,12.80
2019-03-04T04:13:13.284Z,12.80
2019-03-04T04:15:42.590Z,12.80
2019-03-04T04:18:11.821Z,12.80
2019-03-04T04:20:41.150Z,12.80
2019-03-04T04:23:10.303Z,12.90
2019-03-04T04:25:39.555Z,12.90
2019-03-04T04:28:10.292Z,12.90
2019-03-04T04:30:40.397Z,12.90
2019-03-04T04:33:09.612Z,12.90
2019-03-04T04:35:38.891Z,12.80
2019-03-04T04:38:08.118Z,12.80
2019-03-04T04:40:37.419Z,12.90
2019-03-04T04:43:06.812Z,12.90
2019-03-04T04:45:36.075Z,12.70
2019-03-04T04:48:05.314Z,11.80
2019-03-04T04:50:34.860Z,11.20
2019-03-04T04:53:04.107Z,10.90
2019-03-04T04:55:33.276Z,10.70
2019-03-04T04:58:02.543Z,10.70
2019-03-04T05:00:31.802Z,10.70
2019-03-04T05:03:00.978Z,10.70
2019-03-04T05:05:30.235Z,10.50
2019-03-04T05:07:59.503Z,10.30
2019-03-04T05:10:28.661Z,10.00
2019-03-04T05:12:57.835Z,9.60
2019-03-04T05:15:27.508Z,9.20
2019-03-04T05:17:56.666Z,8.80
2019-03-04T05:20:25.865Z,8.70
2019-03-04T05:22:55.018Z,8.50
2019-03-04T05:25:24.239Z,8.50
2019-03-04T05:27:53.420Z,8.50
2019-03-04T05:30:22.894Z,8.50
2019-03-04T05:32:52.204Z,8.50
2019-03-04T05:35:21.887Z,8.60
2019-03-04T05:37:51.114Z,8.60
2019-03-04T05:40:20.271Z,8.70
2019-03-04T05:42:49.738Z,8.80
2019-03-04T05:45:19.078Z,8.80
2019-03-04T05:47:48.255Z,8.90
2019-03-04T05:50:17.787Z,8.90
2019-03-04T05:52:47.060Z,9.00
2019-03-04T05:55:16.372Z,9.00
2019-03-04T05:57:45.692Z,9.00
2019-03-04T06:00:17.389Z,9.00
2019-03-04T06:02:46.617Z,9.10
2019-03-04T06:05:16.129Z,9.20
2019-03-04T06:08:00.652Z,9.30
2019-03-04T06:10:29.884Z,9.30
2019-03-04T06:12:59.187Z,9.30
2019-03-04T06:15:28.362Z,9.40
2019-03-04T06:17:57.608Z,9.40
2019-03-04T06:20:26.846Z,9.40
2019-03-04T06:22:56.040Z,9.40
2019-03-04T06:25:28.751Z,9.40
2019-03-04T06:27:58.052Z,9.50
2019-03-04T06:30:27.715Z,9.40
2019-03-04T06:32:57.009Z,9.50
2019-03-04T06:35:26.290Z,9.50
2019-03-04T06:37:55.704Z,9.50
2019-03-04T06:40:25.868Z,9.60
2019-03-04T06:42:55.107Z,9.70
2019-03-04T06:45:24.265Z,9.70
2019-03-04T06:47:53.481Z,9.70
2019-03-04T06:50:57.714Z,9.60
2019-03-04T06:53:43.037Z,9.50
2019-03-04T06:56:38.188Z,9.40
2019-03-04T06:59:12.354Z,9.30
2019-03-04T07:01:45.984Z,9.40
2019-03-04T07:04:23.663Z,9.40
2019-03-04T07:06:53.004Z,9.40
2019-03-04T07:09:22.316Z,9.50
2019-03-04T07:11:55.118Z,9.40
2019-03-04T07:14:24.359Z,9.40
2019-03-04T07:16:54.071Z,9.40
2019-03-04T07:19:24.666Z,9.50
2019-03-04T07:21:53.908Z,9.60
2019-03-04T07:24:23.217Z,9.70
2019-03-04T07:26:53.366Z,9.70
2019-03-04T07:29:22.614Z,9.80
2019-03-04T07:31:51.970Z,9.80
2019-03-04T07:34:21.317Z,9.80
2019-03-04T07:36:50.600Z,9.80
2019-03-04T07:39:20.597Z,9.90
2019-03-04T07:41:54.453Z,9.80
2019-03-04T07:44:23.691Z,9.90
2019-03-04T07:46:52.873Z,9.90
2019-03-04T07:49:23.878Z,9.90
2019-03-04T07:51:53.172Z,10.10
2019-03-04T07:54:22.438Z,10.20
2019-03-04T07:56:51.806Z,10.20
2019-03-04T07:59:21.135Z,10.40
2019-03-04T08:01:50.301Z,10.50
2019-03-04T08:04:19.597Z,10.60
2019-03-04T08:06:48.771Z,10.60
2019-03-04T08:09:52.816Z,10.70
2019-03-04T08:12:55.563Z,10.70
2019-03-04T08:15:25.422Z,10.60
2019-03-04T08:17:54.749Z,10.60
2019-03-04T08:20:24.007Z,10.50
2019-03-04T08:22:53.472Z,10.40
2019-03-04T08:25:22.778Z,10.30
2019-03-04T08:27:52.901Z,10.20
2019-03-04T08:30:23.150Z,10.10
2019-03-04T08:32:52.390Z,9.90
2019-03-04T08:35:21.626Z,9.80
2019-03-04T08:37:50.815Z,9.60
2019-03-04T08:40:19.977Z,9.40
2019-03-04T08:42:49.228Z,9.10
2019-03-04T08:45:20.013Z,9.10
2019-03-04T08:47:49.326Z,8.90
2019-03-04T08:50:18.803Z,8.90
2019-03-04T08:52:48.399Z,9.00
2019-03-04T08:55:17.896Z,9.00
2019-03-04T08:57:47.242Z,9.00
2019-03-04T09:00:19.046Z,9.10
2019-03-04T09:02:48.657Z,9.30
2019-03-04T09:05:18.282Z,9.40
2019-03-04T09:07:47.931Z,9.50
2019-03-04T09:10:25.493Z,9.50
2019-03-04T09:12:54.838Z,9.50
2019-03-04T09:15:24.375Z,9.60
2019-03-04T09:17:53.627Z,9.50
2019-03-04T09:20:23.996Z,9.60
2019-03-04T09:22:53.502Z,9.60
2019-03-04T09:25:30.353Z,9.70
2019-03-04T09:27:56.847Z,9.70
2019-03-04T09:30:26.162Z,9.80
2019-03-04T09:32:55.498Z,9.90
2019-03-04T09:35:24.780Z,10.00
2019-03-04T09:37:54.118Z,10.10
2019-03-04T09:40:23.385Z,10.20
2019-03-04T09:42:52.600Z,10.20
2019-03-04T09:45:21.845Z,10.20
2019-03-04T09:47:51.094Z,10.30
2019-03-04T09:50:20.369Z,10.20
2019-03-04T09:52:51.418Z,10.20
2019-03-04T09:55:21.388Z,10.10
2019-03-04T09:57:50.730Z,8.40
2019-03-04T10:01:00.022Z,6.60
2019-03-04T10:04:05.920Z,6.30
2019-03-04T10:07:10.293Z,6.40
2019-03-04T10:10:17.436Z,6.40
2019-03-04T10:13:21.505Z,6.50
2019-03-04T10:16:27.963Z,6.50
2019-03-04T10:19:15.556Z,6.60
2019-03-04T10:22:16.495Z,6.60
2019-03-04T10:25:36.124Z,6.60
2019-03-04T10:28:46.546Z,6.80
2019-03-04T10:31:38.438Z,7.00
2019-03-04T10:34:42.849Z,7.10
2019-03-04T10:37:49.303Z,7.20
2019-03-04T10:41:08.711Z,7.20
2019-03-04T10:44:37.514Z,7.10
2019-03-04T10:47:04.291Z,7.10
2019-03-04T10:49:35.506Z,7.10
2019-03-04T10:52:06.102Z,7.20
2019-03-04T10:54:35.409Z,7.30
2019-03-04T10:57:04.879Z,7.30
2019-03-04T10:59:34.141Z,7.40
2019-03-04T11:02:03.492Z,7.50
2019-03-04T11:04:32.808Z,7.70
2019-03-04T11:07:02.128Z,7.80
2019-03-04T11:09:32.253Z,8.00
2019-03-04T11:12:01.572Z,8.00
2019-03-04T11:14:30.889Z,8.10
2019-03-04T11:17:00.513Z,8.20
2019-03-04T11:19:29.795Z,8.40
2019-03-04T11:21:59.130Z,8.50
2019-03-04T11:24:28.576Z,8.40
2019-03-04T11:26:57.959Z,8.30
2019-03-04T11:29:27.536Z,8.20
2019-03-04T11:31:56.886Z,8.00
2019-03-04T11:34:27.569Z,8.00
2019-03-04T11:36:56.726Z,8.00
2019-03-04T11:39:48.014Z,8.10
2019-03-04T11:42:17.353Z,8.20
2019-03-04T11:44:46.685Z,8.30
2019-03-04T11:47:17.721Z,8.20
2019-03-04T11:49:47.020Z,8.20
2019-03-04T11:52:16.339Z,8.30
2019-03-04T11:54:45.688Z,8.40
2019-03-04T11:57:15.005Z,8.60
2019-03-04T11:59:44.255Z,8.80
2019-03-04T12:02:19.047Z,9.00
2019-03-04T12:04:48.304Z,9.10
2019-03-04T12:07:17.858Z,9.20
2019-03-04T12:09:47.130Z,9.20
2019-03-04T12:12:16.447Z,9.20
2019-03-04T12:14:45.706Z,9.20
2019-03-04T12:17:14.904Z,9.20
2019-03-04T12:19:44.227Z,9.20
2019-03-04T12:22:13.476Z,9.20
2019-03-04T12:24:42.697Z,9.20
2019-03-04T12:27:12.040Z,9.10
2019-03-04T12:29:41.369Z,9.20
2019-03-04T12:32:15.223Z,9.20
2019-03-04T12:34:46.128Z,9.20
2019-03-04T12:37:15.385Z,9.10
2019-03-04T12:39:44.702Z,9.30
2019-03-04T12:42:14.019Z,9.40
2019-03-04T12:44:43.290Z,9.60
2019-03-04T12:47:12.852Z,9.80
2019-03-04T12:49:42.127Z,10.00
2019-03-04T12:52:11.366Z,10.20
2019-03-04T12:54:40.718Z,10.20
2019-03-04T12:57:09.885Z,10.60
2019-03-04T12:59:39.121Z,10.80
2019-03-04T13:02:08.537Z,11.00
2019-03-04T13:04:37.903Z,11.10
2019-03-04T13:07:07.169Z,10.90
2019-03-04T13:09:36.519Z,10.80
2019-03-04T13:12:06.159Z,10.70
2019-03-04T13:14:35.458Z,10.60
2019-03-04T13:17:05.032Z,10.40
2019-03-04T13:19:34.251Z,10.40
2019-03-04T13:22:08.526Z,10.50
2019-03-04T13:24:34.538Z,10.70
2019-03-04T13:27:03.794Z,10.70
2019-03-04T13:29:32.982Z,10.60
2019-03-04T13:32:02.328Z,10.50
2019-03-04T13:34:31.572Z,10.60
2019-03-04T13:37:00.826Z,10.50
2019-03-04T13:39:30.111Z,10.40
2019-03-04T13:41:59.363Z,10.60
2019-03-04T13:44:28.615Z,10.70
2019-03-04T13:46:57.949Z,10.80
2019-03-04T13:49:27.208Z,10.80
2019-03-04T13:51:56.376Z,10.80
2019-03-04T13:54:25.667Z,10.80
2019-03-04T13:56:54.914Z,10.90
2019-03-04T13:59:24.162Z,10.90
2019-03-04T14:01:53.474Z,11.00
2019-03-04T14:04:22.635Z,10.90
2019-03-04T14:06:53.556Z,10.90
2019-03-04T14:09:23.474Z,10.80
2019-03-04T14:11:52.665Z,10.80
2019-03-04T14:14:21.906Z,10.80
2019-03-04T14:16:51.216Z,11.00
2019-03-04T14:19:20.530Z,11.10
2019-03-04T14:21:49.711Z,11.10
2019-03-04T14:24:19.001Z,11.20
2019-03-04T14:26:48.345Z,11.20
2019-03-04T14:29:17.668Z,11.20
2019-03-04T14:31:47.206Z,11.00
2019-03-04T14:34:16.521Z,10.80
2019-03-04T14:36:45.843Z,10.80
2019-03-04T14:39:16.398Z,10.80
2019-03-04T14:41:45.635Z,10.90
2019-03-04T14:44:14.867Z,11.00
2019-03-04T14:46:44.061Z,11.00
2019-03-04T14:49:13.299Z,11.10
2019-03-04T14:51:42.460Z,11.30
2019-03-04T14:54:11.820Z,11.60
2019-03-04T14:56:41.068Z,11.80
2019-03-04T14:59:11.348Z,11.80
2019-03-04T15:01:40.777Z,11.80
2019-03-04T15:04:10.087Z,11.70
2019-03-04T15:06:39.275Z,11.80
2019-03-04T15:09:13.333Z,11.50
2019-03-04T15:11:42.598Z,11.40
2019-03-04T15:14:11.801Z,11.40
2019-03-04T15:16:41.063Z,11.10
2019-03-04T15:19:10.237Z,10.90
2019-03-04T15:21:39.516Z,10.90
2019-03-04T15:24:08.791Z,10.80
2019-03-04T15:26:41.988Z,10.70
2019-03-04T15:29:09.007Z,10.80
2019-03-04T15:31:38.227Z,10.70
2019-03-04T15:34:07.485Z,10.70
2019-03-04T15:36:36.796Z,10.90
2019-03-04T15:39:22.491Z,11.00
2019-03-04T15:41:45.761Z,11.20
2019-03-04T15:44:14.920Z,11.00
2019-03-04T15:46:44.235Z,10.80
2019-03-04T15:49:13.471Z,10.60
2019-03-04T15:51:42.711Z,10.50
2019-03-04T15:54:12.022Z,10.60
2019-03-04T15:56:41.344Z,10.60
2019-03-04T15:59:10.656Z,10.60
2019-03-04T16:01:40.149Z,10.60
2019-03-04T16:04:09.394Z,10.50
2019-03-04T16:06:38.630Z,10.50
2019-03-04T16:09:14.930Z,10.40
2019-03-04T16:11:44.115Z,10.30
2019-03-04T16:14:13.296Z,10.10
2019-03-04T16:16:42.746Z,10.10
2019-03-04T16:19:12.000Z,10.00
2019-03-04T16:21:41.286Z,9.90
2019-03-04T16:24:10.565Z,9.90
2019-03-04T16:26:39.726Z,9.80
2019-03-04T16:29:08.987Z,9.80
2019-03-04T16:31:38.273Z,9.80
2019-03-04T16:34:07.502Z,9.70
2019-03-04T16:36:36.690Z,9.70
2019-03-04T16:39:06.720Z,9.60
2019-03-04T16:41:36.325Z,9.60
2019-03-04T16:44:05.559Z,9.60
2019-03-04T16:46:34.771Z,9.60
2019-03-04T16:49:04.152Z,9.50
2019-03-04T16:51:33.448Z,9.50
2019-03-04T16:54:02.760Z,9.40
2019-03-04T16:56:32.133Z,9.40
2019-03-04T16:59:01.451Z,9.40
2019-03-04T17:01:30.670Z,9.40
2019-03-04T17:03:59.945Z,9.30
2019-03-04T17:06:29.262Z,9.30
2019-03-04T17:08:58.620Z,9.20
2019-03-04T17:11:27.939Z,9.30
2019-03-04T17:13:57.206Z,9.20
2019-03-04T17:16:26.431Z,9.10
2019-03-04T17:18:55.788Z,9.10
2019-03-04T17:21:25.071Z,9.00
2019-03-04T17:23:54.356Z,9.00
2019-03-04T17:26:23.661Z,9.00
2019-03-04T17:28:52.966Z,8.90
2019-03-04T17:31:22.237Z,8.80
2019-03-04T17:33:51.474Z,8.80
2019-03-04T17:36:20.643Z,8.80
2019-03-04T17:38:50.010Z,8.70
2019-03-04T17:41:19.358Z,8.70
2019-03-04T17:43:48.590Z,8.70
2019-03-04T17:46:17.953Z,8.60
2019-03-04T17:48:47.256Z,8.60
2019-03-04T17:51:16.402Z,8.60
2019-03-04T17:53:45.619Z,8.60
2019-03-04T17:56:14.849Z,8.50
2019-03-04T17:58:44.030Z,8.50
2019-03-04T18:01:13.310Z,8.50
2019-03-04T18:03:42.583Z,8.40
2019-03-04T18:06:11.822Z,8.40
2019-03-04T18:08:41.092Z,8.30
2019-03-04T18:11:10.254Z,8.30
2019-03-04T18:13:39.843Z,8.20
2019-03-04T18:16:09.202Z,8.20
2019-03-04T18:18:38.456Z,8.20
2019-03-04T18:21:07.762Z,8.20
2019-03-04T18:23:36.958Z,8.20
2019-03-04T18:26:13.256Z,8.10
2019-03-04T18:29:04.517Z,8.10
2019-03-04T18:31:45.650Z,8.00
2019-03-04T18:34:47.600Z,8.00
2019-03-04T18:38:01.115Z,7.90
2019-03-04T18:41:03.774Z,7.90
2019-03-04T18:43:54.716Z,7.90
2019-03-04T18:47:00.882Z,7.90
2019-03-04T18:49:30.195Z,7.80
2019-03-04T18:51:59.554Z,7.90
2019-03-04T18:54:28.833Z,8.00
2019-03-04T18:56:58.157Z,8.00
2019-03-04T18:59:27.310Z,8.10
2019-03-04T19:01:56.583Z,8.20
2019-03-04T19:04:25.725Z,8.20
2019-03-04T19:06:54.978Z,8.30
2019-03-04T19:09:24.241Z,8.30
2019-03-04T19:11:53.556Z,8.40
2019-03-04T19:14:22.869Z,8.40
2019-03-04T19:16:52.176Z,8.40
2019-03-04T19:19:21.721Z,8.30
2019-03-04T19:21:50.977Z,8.30
2019-03-04T19:24:20.284Z,8.30
2019-03-04T19:26:49.548Z,8.30
2019-03-04T19:29:18.869Z,8.30
2019-03-04T19:31:48.134Z,8.20
2019-03-04T19:34:17.458Z,8.00
2019-03-04T19:36:46.908Z,7.60
2019-03-04T19:39:16.253Z,6.80
2019-03-04T19:41:45.429Z,6.30
2019-03-04T19:44:14.631Z,6.00
2019-03-04T19:46:44.022Z,6.00
2019-03-04T19:49:13.255Z,5.90
2019-03-04T19:51:42.569Z,5.90
2019-03-04T19:54:12.072Z,5.90
2019-03-04T19:56:41.317Z,5.90
2019-03-04T19:59:10.579Z,6.00
2019-03-04T20:01:39.783Z,6.00
2019-03-04T20:04:09.036Z,6.00
2019-03-04T20:06:38.338Z,6.00
2019-03-04T20:09:09.611Z,6.10
2019-03-04T20:11:38.848Z,6.10
2019-03-04T20:14:08.100Z,6.10
2019-03-04T20:16:37.437Z,6.20
2019-03-04T20:19:06.761Z,6.30
2019-03-04T20:21:35.929Z,6.30
2019-03-04T20:24:05.179Z,6.40
2019-03-04T20:26:34.416Z,6.40
2019-03-04T20:29:03.965Z,6.40
2019-03-04T20:31:33.164Z,6.50
2019-03-04T20:34:02.412Z,6.60
2019-03-04T20:36:31.748Z,6.70
2019-03-04T20:39:01.005Z,6.70
2019-03-04T20:41:32.838Z,6.70
2019-03-04T20:44:02.287Z,6.70
2019-03-04T20:46:31.560Z,6.80
2019-03-04T20:49:00.807Z,6.70
2019-03-04T20:51:29.972Z,6.70
2019-03-04T20:53:59.238Z,6.70
2019-03-04T20:56:28.483Z,6.70
2019-03-04T20:58:57.741Z,6.70
2019-03-04T21:01:27.624Z,6.70
2019-03-04T21:03:56.852Z,6.70
2019-03-04T21:06:26.092Z,6.80
2019-03-04T21:08:55.481Z,6.80
2019-03-04T21:11:25.104Z,6.80
2019-03-04T21:13:54.337Z,6.80
2019-03-04T21:16:23.687Z,6.80
2019-03-04T21:18:52.940Z,6.80
2019-03-04T21:21:22.265Z,6.80
2019-03-04T21:23:51.467Z,6.80
2019-03-04T21:26:26.663Z,6.80
2019-03-04T21:29:05.206Z,6.80
2019-03-04T21:31:44.510Z,6.80
2019-03-04T21:35:10.063Z,6.80
2019-03-04T21:37:44.694Z,6.90
2019-03-04T21:40:47.438Z,7.00
2019-03-04T21:43:25.236Z,7.00
2019-03-04T21:46:51.312Z,6.90
2019-03-04T21:49:21.201Z,6.90
2019-03-04T21:52:36.498Z,7.00
2019-03-04T21:55:12.641Z,7.00
2019-03-04T21:57:48.012Z,7.10
2019-03-04T22:00:26.063Z,7.10
2019-03-04T22:03:19.947Z,7.10
2019-03-04T22:05:50.653Z,7.10
2019-03-04T22:08:20.177Z,7.00
2019-03-04T22:10:49.529Z,7.10
2019-03-04T22:13:19.306Z,7.10
2019-03-04T22:15:48.999Z,7.00
2019-03-04T22:18:18.250Z,7.00
2019-03-04T22:20:47.428Z,7.00
2019-03-04T22:23:16.675Z,6.90
2019-03-04T22:25:45.930Z,6.90
2019-03-04T22:28:15.246Z,6.90
2019-03-04T22:30:44.497Z,6.90
2019-03-04T22:33:13.991Z,6.90
2019-03-04T22:35:43.329Z,6.90
2019-03-04T22:38:12.633Z,6.90
2019-03-04T22:40:41.904Z,6.90
2019-03-04T22:43:11.137Z,6.90
2019-03-04T22:45:40.442Z,6.90
2019-03-04T22:48:09.813Z,6.90
2019-03-04T22:50:39.149Z,6.90
2019-03-04T22:53:08.327Z,6.90
2019-03-04T22:55:38.141Z,6.90
2019-03-04T22:58:07.378Z,7.00
2019-03-04T23:01:28.626Z,7.00
2019-03-04T23:04:02.899Z,7.10
2019-03-04T23:06:33.276Z,7.10
2019-03-04T23:09:02.579Z,7.10
2019-03-04T23:11:31.876Z,7.10
2019-03-04T23:14:17.043Z,7.10
2019-03-04T23:16:46.283Z,7.10
2019-03-04T23:19:15.518Z,7.10
2019-03-04T23:21:44.869Z,7.10
2019-03-04T23:24:14.187Z,7.10
2019-03-04T23:26:43.416Z,7.10
2019-03-04T23:29:12.683Z,7.20
2019-03-04T23:31:42.439Z,7.10
2019-03-04T23:34:11.675Z,7.10
2019-03-04T23:36:40.959Z,7.20
2019-03-04T23:39:10.212Z,7.10
2019-03-04T23:41:39.649Z,7.20
2019-03-04T23:44:09.187Z,7.20
2019-03-04T23:46:38.537Z,7.10
2019-03-04T23:49:07.708Z,7.10
2019-03-04T23:51:37.286Z,7.10
2019-03-04T23:54:06.511Z,7.10
2019-03-04T23:56:35.675Z,7.10
2019-03-04T23:59:05.519Z,7.00
